EWG33T EDDM-LEPA
Flight info
| Callsign | EWG33T |
|---|---|
| Flight time | 1h 52m |
| Altitude | 37000 |
| Route | TURBU6E/08R TURBU Y107 TOBSO DCT BAKOR DCT SUMIR DCT MISPO DCT PIDAD DCT TALEP DCT RARQU DCT BALEN UT250 RIXOT RIXOT2M |
| Aircraft | A320/M-VGDW/C |
Departure
| Time | 2026-05-01 12:10 |
|---|---|
| Airport | Munich Airport (EDDM) |
Arrival
| Time | 2026-05-01 14:02 |
|---|---|
| Airport | Palma de Mallorca Airport (LEPA) |
| Time | Latitude | Longitude | Altitude | Speed | Heading |
|---|---|---|---|---|---|
| 2026-05-01 11:30 | 48.35456 | 11.79307 | 1486 ft | 0 kts | 263° |
| 2026-05-01 11:49 | 48.35458 | 11.79334 | 1473 ft | 3 kts | 261° |
| 2026-05-01 11:49 | 48.35462 | 11.79369 | 1476 ft | 3 kts | 258° |
| 2026-05-01 11:49 | 48.35467 | 11.79403 | 1482 ft | 3 kts | 250° |
| 2026-05-01 11:49 | 48.35477 | 11.79434 | 1471 ft | 3 kts | 227° |
| 2026-05-01 11:50 | 48.35492 | 11.79448 | 1478 ft | 2 kts | 174° |
| 2026-05-01 11:50 | 48.35493 | 11.79448 | 1478 ft | 0 kts | 173° |
| 2026-05-01 11:54 | 48.35492 | 11.79448 | 1485 ft | 1 kts | 173° |
| 2026-05-01 11:54 | 48.35484 | 11.79449 | 1476 ft | 1 kts | 174° |
| 2026-05-01 11:54 | 48.35460 | 11.79453 | 1485 ft | 7 kts | 174° |
| 2026-05-01 11:55 | 48.35410 | 11.79461 | 1485 ft | 7 kts | 173° |
| 2026-05-01 11:55 | 48.35357 | 11.79470 | 1482 ft | 9 kts | 174° |
| 2026-05-01 11:55 | 48.35300 | 11.79480 | 1485 ft | 8 kts | 173° |
| 2026-05-01 11:55 | 48.35254 | 11.79489 | 1482 ft | 6 kts | 173° |
| 2026-05-01 11:56 | 48.35188 | 11.79500 | 1485 ft | 15 kts | 173° |
| 2026-05-01 11:56 | 48.35097 | 11.79516 | 1485 ft | 8 kts | 173° |
| 2026-05-01 11:56 | 48.35073 | 11.79520 | 1480 ft | 0 kts | 173° |
| 2026-05-01 11:59 | 48.35045 | 11.79525 | 1485 ft | 14 kts | 173° |
| 2026-05-01 11:59 | 48.34916 | 11.79548 | 1474 ft | 20 kts | 173° |
| 2026-05-01 12:00 | 48.34781 | 11.79415 | 1479 ft | 11 kts | 263° |
| 2026-05-01 12:00 | 48.34771 | 11.79302 | 1485 ft | 13 kts | 263° |
| 2026-05-01 12:00 | 48.34746 | 11.78968 | 1485 ft | 16 kts | 263° |
| 2026-05-01 12:01 | 48.34734 | 11.78809 | 1485 ft | 15 kts | 263° |
| 2026-05-01 12:01 | 48.34721 | 11.78641 | 1476 ft | 18 kts | 264° |
| 2026-05-01 12:01 | 48.34705 | 11.78436 | 1485 ft | 19 kts | 263° |
| 2026-05-01 12:01 | 48.34690 | 11.78244 | 1485 ft | 18 kts | 264° |
| 2026-05-01 12:02 | 48.34676 | 11.78068 | 1485 ft | 17 kts | 263° |
| 2026-05-01 12:02 | 48.34658 | 11.77835 | 1485 ft | 24 kts | 263° |
| 2026-05-01 12:02 | 48.34640 | 11.77600 | 1485 ft | 22 kts | 263° |
| 2026-05-01 12:02 | 48.34622 | 11.77367 | 1479 ft | 26 kts | 263° |
| 2026-05-01 12:03 | 48.34603 | 11.77110 | 1485 ft | 24 kts | 263° |
| 2026-05-01 12:03 | 48.34584 | 11.76874 | 1485 ft | 22 kts | 263° |
| 2026-05-01 12:03 | 48.34568 | 11.76660 | 1485 ft | 20 kts | 263° |
| 2026-05-01 12:03 | 48.34553 | 11.76468 | 1481 ft | 18 kts | 263° |
| 2026-05-01 12:04 | 48.34540 | 11.76293 | 1485 ft | 16 kts | 264° |
| 2026-05-01 12:04 | 48.34527 | 11.76129 | 1485 ft | 18 kts | 264° |
| 2026-05-01 12:04 | 48.34510 | 11.75907 | 1478 ft | 24 kts | 262° |
| 2026-05-01 12:04 | 48.34490 | 11.75640 | 1484 ft | 26 kts | 263° |
| 2026-05-01 12:05 | 48.34469 | 11.75376 | 1485 ft | 25 kts | 263° |
| 2026-05-01 12:05 | 48.34380 | 11.75222 | 1484 ft | 7 kts | 173° |
| 2026-05-01 12:05 | 48.34336 | 11.75230 | 1479 ft | 6 kts | 173° |
| 2026-05-01 12:06 | 48.34302 | 11.75236 | 1477 ft | 4 kts | 173° |
| 2026-05-01 12:06 | 48.34257 | 11.75244 | 1478 ft | 9 kts | 173° |
| 2026-05-01 12:06 | 48.34200 | 11.75254 | 1480 ft | 7 kts | 173° |
| 2026-05-01 12:06 | 48.34194 | 11.75255 | 1482 ft | 0 kts | 173° |
| 2026-05-01 12:07 | 48.34190 | 11.75256 | 1480 ft | 2 kts | 173° |
| 2026-05-01 12:07 | 48.34165 | 11.75260 | 1485 ft | 8 kts | 173° |
| 2026-05-01 12:07 | 48.34102 | 11.75275 | 1476 ft | 8 kts | 169° |
| 2026-05-01 12:08 | 48.34086 | 11.75330 | 1485 ft | 0 kts | 85° |
| 2026-05-01 12:09 | 48.34087 | 11.75340 | 1485 ft | 4 kts | 85° |
| 2026-05-01 12:09 | 48.34105 | 11.75613 | 1473 ft | 61 kts | 84° |
| 2026-05-01 12:10 | 48.34181 | 11.76568 | 1485 ft | 121 kts | 83° |
| 2026-05-01 12:10 | 48.34407 | 11.79763 | 2159 ft | 165 kts | 84° |
| 2026-05-01 12:10 | 48.34523 | 11.81489 | 2998 ft | 165 kts | 85° |
| 2026-05-01 12:11 | 48.34803 | 11.85194 | 3942 ft | 200 kts | 84° |
| 2026-05-01 12:11 | 48.34975 | 11.87398 | 4395 ft | 222 kts | 84° |
| 2026-05-01 12:11 | 48.35157 | 11.89712 | 5221 ft | 229 kts | 85° |
| 2026-05-01 12:12 | 48.35347 | 11.92120 | 6024 ft | 234 kts | 85° |
| 2026-05-01 12:12 | 48.35309 | 11.94582 | 6828 ft | 238 kts | 106° |
| 2026-05-01 12:12 | 48.34498 | 11.96746 | 7651 ft | 244 kts | 133° |
| 2026-05-01 12:12 | 48.33176 | 11.98391 | 8490 ft | 248 kts | 139° |
| 2026-05-01 12:13 | 48.31805 | 11.99986 | 9319 ft | 251 kts | 139° |
| 2026-05-01 12:13 | 48.30365 | 12.01533 | 10144 ft | 258 kts | 148° |
| 2026-05-01 12:13 | 48.28650 | 12.02501 | 10807 ft | 272 kts | 165° |
| 2026-05-01 12:13 | 48.26680 | 12.02679 | 11162 ft | 295 kts | 179° |
| 2026-05-01 12:14 | 48.24597 | 12.02526 | 11770 ft | 303 kts | 179° |
| 2026-05-01 12:14 | 48.22472 | 12.02381 | 12513 ft | 308 kts | 179° |
| 2026-05-01 12:14 | 48.20312 | 12.02243 | 13217 ft | 313 kts | 179° |
| 2026-05-01 12:14 | 48.18119 | 12.02108 | 13915 ft | 318 kts | 180° |
| 2026-05-01 12:15 | 48.15895 | 12.01976 | 14583 ft | 322 kts | 179° |
| 2026-05-01 12:15 | 48.13643 | 12.01846 | 15248 ft | 325 kts | 179° |
| 2026-05-01 12:15 | 48.11374 | 12.01714 | 15923 ft | 329 kts | 179° |
| 2026-05-01 12:15 | 48.09068 | 12.01584 | 16551 ft | 333 kts | 179° |
| 2026-05-01 12:16 | 48.06740 | 12.01264 | 17184 ft | 340 kts | 188° |
| 2026-05-01 12:16 | 48.04374 | 12.00372 | 17378 ft | 360 kts | 193° |
| 2026-05-01 12:16 | 48.01899 | 11.99342 | 17542 ft | 378 kts | 193° |
| 2026-05-01 12:16 | 47.99337 | 11.98256 | 17960 ft | 387 kts | 193° |
| 2026-05-01 12:17 | 47.96730 | 11.97144 | 18563 ft | 391 kts | 193° |
| 2026-05-01 12:17 | 47.94110 | 11.96024 | 19093 ft | 394 kts | 193° |
| 2026-05-01 12:17 | 47.91433 | 11.95078 | 19603 ft | 395 kts | 185° |
| 2026-05-01 12:17 | 47.88696 | 11.94795 | 20106 ft | 396 kts | 177° |
| 2026-05-01 12:18 | 47.85925 | 11.94758 | 20621 ft | 399 kts | 177° |
| 2026-05-01 12:18 | 47.83132 | 11.94722 | 21125 ft | 403 kts | 177° |
| 2026-05-01 12:18 | 47.80319 | 11.94678 | 21627 ft | 406 kts | 178° |
| 2026-05-01 12:18 | 47.77477 | 11.94627 | 22091 ft | 410 kts | 178° |
| 2026-05-01 12:19 | 47.74613 | 11.94569 | 22572 ft | 414 kts | 178° |
| 2026-05-01 12:19 | 47.71720 | 11.94507 | 23041 ft | 417 kts | 178° |
| 2026-05-01 12:19 | 47.68808 | 11.94450 | 23507 ft | 420 kts | 178° |
| 2026-05-01 12:19 | 47.65872 | 11.94397 | 23978 ft | 424 kts | 178° |
| 2026-05-01 12:20 | 47.62911 | 11.94348 | 24359 ft | 426 kts | 178° |
| 2026-05-01 12:20 | 47.59936 | 11.94299 | 24762 ft | 429 kts | 178° |
| 2026-05-01 12:20 | 47.56941 | 11.94246 | 25114 ft | 432 kts | 178° |
| 2026-05-01 12:20 | 47.53924 | 11.94193 | 25452 ft | 435 kts | 178° |
| 2026-05-01 12:21 | 47.50889 | 11.94142 | 25828 ft | 437 kts | 178° |
| 2026-05-01 12:21 | 47.47840 | 11.94091 | 26209 ft | 439 kts | 178° |
| 2026-05-01 12:21 | 47.44779 | 11.94041 | 26565 ft | 442 kts | 178° |
| 2026-05-01 12:21 | 47.42731 | 11.93916 | 26811 ft | 445 kts | 183° |
| 2026-05-01 12:22 | 47.39644 | 11.93327 | 27162 ft | 448 kts | 186° |
| 2026-05-01 12:22 | 47.36547 | 11.92699 | 27540 ft | 451 kts | 186° |
| 2026-05-01 12:22 | 47.33428 | 11.92069 | 27898 ft | 453 kts | 186° |
| 2026-05-01 12:22 | 47.30296 | 11.91443 | 28237 ft | 456 kts | 186° |
| 2026-05-01 12:23 | 47.27146 | 11.90820 | 28586 ft | 458 kts | 186° |
| 2026-05-01 12:23 | 47.23979 | 11.90195 | 28934 ft | 461 kts | 186° |
| 2026-05-01 12:23 | 47.20788 | 11.89563 | 29285 ft | 463 kts | 186° |
| 2026-05-01 12:23 | 47.17594 | 11.88926 | 29589 ft | 466 kts | 186° |
| 2026-05-01 12:24 | 47.14364 | 11.88280 | 29910 ft | 469 kts | 186° |
| 2026-05-01 12:24 | 47.11123 | 11.87638 | 30228 ft | 471 kts | 186° |
| 2026-05-01 12:24 | 47.07873 | 11.86991 | 30529 ft | 473 kts | 186° |
| 2026-05-01 12:24 | 47.04598 | 11.86342 | 30842 ft | 475 kts | 186° |
| 2026-05-01 12:25 | 47.01318 | 11.85685 | 31113 ft | 477 kts | 186° |
| 2026-05-01 12:25 | 46.94756 | 11.83873 | 31559 ft | 482 kts | 191° |
| 2026-05-01 12:25 | 46.91478 | 11.82763 | 31851 ft | 483 kts | 192° |
| 2026-05-01 12:26 | 46.88210 | 11.81616 | 32235 ft | 483 kts | 192° |
| 2026-05-01 12:26 | 46.81722 | 11.79392 | 32914 ft | 481 kts | 191° |
| 2026-05-01 12:26 | 46.78446 | 11.78331 | 33251 ft | 481 kts | 190° |
| 2026-05-01 12:27 | 46.75175 | 11.77304 | 33649 ft | 481 kts | 189° |
| 2026-05-01 12:27 | 46.68624 | 11.75280 | 34319 ft | 481 kts | 189° |
| 2026-05-01 12:28 | 46.62155 | 11.72834 | 34936 ft | 481 kts | 200° |
| 2026-05-01 12:28 | 46.59090 | 11.70706 | 35226 ft | 482 kts | 210° |
| 2026-05-01 12:28 | 46.53651 | 11.65173 | 35782 ft | 480 kts | 217° |
| 2026-05-01 12:29 | 46.50956 | 11.62312 | 36067 ft | 479 kts | 216° |
| 2026-05-01 12:29 | 46.48262 | 11.59462 | 36344 ft | 477 kts | 216° |
| 2026-05-01 12:29 | 46.42907 | 11.53817 | 36891 ft | 475 kts | 217° |
| 2026-05-01 12:30 | 46.37568 | 11.48210 | 37298 ft | 473 kts | 217° |
| 2026-05-01 12:30 | 46.34905 | 11.45420 | 37326 ft | 471 kts | 217° |
| 2026-05-01 12:31 | 46.29604 | 11.39867 | 37320 ft | 470 kts | 217° |
| 2026-05-01 12:31 | 46.24312 | 11.34325 | 37327 ft | 469 kts | 217° |
| 2026-05-01 12:32 | 46.19043 | 11.28743 | 37327 ft | 469 kts | 217° |
| 2026-05-01 12:32 | 46.11166 | 11.20340 | 37363 ft | 469 kts | 217° |
| 2026-05-01 12:33 | 46.05903 | 11.14775 | 37359 ft | 469 kts | 217° |
| 2026-05-01 12:33 | 46.00650 | 11.09239 | 37368 ft | 467 kts | 217° |
| 2026-05-01 12:34 | 45.95406 | 11.03730 | 37380 ft | 466 kts | 217° |
| 2026-05-01 12:34 | 45.90172 | 10.98235 | 37379 ft | 466 kts | 217° |
| 2026-05-01 12:35 | 45.84969 | 10.92787 | 37382 ft | 465 kts | 217° |
| 2026-05-01 12:35 | 45.79693 | 10.87292 | 37389 ft | 465 kts | 217° |
| 2026-05-01 12:36 | 45.74459 | 10.81839 | 37384 ft | 465 kts | 217° |
| 2026-05-01 12:36 | 45.69252 | 10.76428 | 37380 ft | 465 kts | 217° |
| 2026-05-01 12:37 | 45.64011 | 10.70987 | 37381 ft | 465 kts | 218° |
| 2026-05-01 12:37 | 45.58765 | 10.65561 | 37384 ft | 465 kts | 217° |
| 2026-05-01 12:38 | 45.53523 | 10.60160 | 37385 ft | 465 kts | 217° |
| 2026-05-01 12:38 | 45.48276 | 10.54760 | 37357 ft | 465 kts | 217° |
| 2026-05-01 12:39 | 45.43040 | 10.49382 | 37403 ft | 463 kts | 218° |
| 2026-05-01 12:39 | 45.37820 | 10.44032 | 37406 ft | 461 kts | 218° |
| 2026-05-01 12:40 | 45.32625 | 10.38711 | 37401 ft | 460 kts | 218° |
| 2026-05-01 12:40 | 45.27432 | 10.33417 | 37402 ft | 460 kts | 218° |
| 2026-05-01 12:41 | 45.22217 | 10.28126 | 37389 ft | 459 kts | 218° |
| 2026-05-01 12:41 | 45.17013 | 10.22850 | 37388 ft | 459 kts | 218° |
| 2026-05-01 12:42 | 45.11819 | 10.17582 | 37382 ft | 459 kts | 218° |
| 2026-05-01 12:42 | 45.06625 | 10.12324 | 37390 ft | 459 kts | 218° |
| 2026-05-01 12:43 | 45.01426 | 10.07081 | 37374 ft | 459 kts | 218° |
| 2026-05-01 12:43 | 44.96227 | 10.01843 | 37381 ft | 459 kts | 218° |
| 2026-05-01 12:44 | 44.91032 | 9.96611 | 37393 ft | 458 kts | 218° |
| 2026-05-01 12:45 | 44.80646 | 9.86191 | 37387 ft | 457 kts | 218° |
| 2026-05-01 12:45 | 44.75463 | 9.81005 | 37390 ft | 457 kts | 218° |
| 2026-05-01 12:46 | 44.70280 | 9.75834 | 37386 ft | 456 kts | 218° |
| 2026-05-01 12:46 | 44.65134 | 9.70720 | 37374 ft | 456 kts | 218° |
| 2026-05-01 12:47 | 44.59922 | 9.65549 | 37361 ft | 456 kts | 218° |
| 2026-05-01 12:47 | 44.54741 | 9.60410 | 37350 ft | 456 kts | 218° |
| 2026-05-01 12:48 | 44.49587 | 9.55308 | 37342 ft | 456 kts | 218° |
| 2026-05-01 12:48 | 44.44393 | 9.50181 | 37329 ft | 457 kts | 218° |
| 2026-05-01 12:49 | 44.39191 | 9.45056 | 37303 ft | 457 kts | 218° |
| 2026-05-01 12:49 | 44.33989 | 9.39947 | 37314 ft | 456 kts | 218° |
| 2026-05-01 12:50 | 44.28797 | 9.34856 | 37318 ft | 456 kts | 218° |
| 2026-05-01 12:50 | 44.23601 | 9.29776 | 37318 ft | 455 kts | 218° |
| 2026-05-01 12:51 | 44.18407 | 9.24713 | 37320 ft | 455 kts | 218° |
| 2026-05-01 12:52 | 44.10616 | 9.17126 | 37321 ft | 455 kts | 218° |
| 2026-05-01 12:52 | 44.02821 | 9.09571 | 37327 ft | 455 kts | 218° |
| 2026-05-01 12:53 | 43.95036 | 9.02049 | 37330 ft | 453 kts | 218° |
| 2026-05-01 12:54 | 43.89865 | 8.97060 | 37341 ft | 452 kts | 218° |
| 2026-05-01 12:54 | 43.82151 | 8.89645 | 37337 ft | 451 kts | 218° |
| 2026-05-01 12:55 | 43.74409 | 8.82231 | 37328 ft | 451 kts | 218° |
| 2026-05-01 12:56 | 43.69242 | 8.77290 | 37326 ft | 451 kts | 218° |
| 2026-05-01 12:56 | 43.63790 | 8.72990 | 37321 ft | 456 kts | 203° |
| 2026-05-01 12:57 | 43.57550 | 8.71243 | 37300 ft | 461 kts | 182° |
| 2026-05-01 12:57 | 43.51262 | 8.70031 | 37306 ft | 450 kts | 210° |
| 2026-05-01 12:57 | 43.48603 | 8.67816 | 37310 ft | 445 kts | 219° |
| 2026-05-01 12:58 | 43.43258 | 8.63527 | 37305 ft | 450 kts | 209° |
| 2026-05-01 12:59 | 43.35031 | 8.57375 | 37297 ft | 444 kts | 225° |
| 2026-05-01 12:59 | 43.28127 | 8.48872 | 37306 ft | 444 kts | 226° |
| 2026-05-01 13:00 | 43.21228 | 8.40387 | 37314 ft | 444 kts | 226° |
| 2026-05-01 13:01 | 43.14325 | 8.31921 | 37313 ft | 443 kts | 225° |
| 2026-05-01 13:02 | 43.07461 | 8.23553 | 37327 ft | 442 kts | 226° |
| 2026-05-01 13:07 | 42.57922 | 7.63820 | 37296 ft | 437 kts | 225° |
| 2026-05-01 13:08 | 42.53354 | 7.58379 | 37292 ft | 436 kts | 225° |
| 2026-05-01 13:08 | 42.48796 | 7.52966 | 37300 ft | 435 kts | 225° |
| 2026-05-01 13:09 | 42.44251 | 7.47575 | 37296 ft | 434 kts | 225° |
| 2026-05-01 13:09 | 42.39715 | 7.42195 | 37295 ft | 433 kts | 225° |
| 2026-05-01 13:10 | 42.35194 | 7.36861 | 37292 ft | 433 kts | 225° |
| 2026-05-01 13:10 | 42.30656 | 7.31524 | 37294 ft | 433 kts | 225° |
| 2026-05-01 13:11 | 42.26120 | 7.26177 | 37291 ft | 432 kts | 225° |
| 2026-05-01 13:11 | 42.21594 | 7.20841 | 37286 ft | 432 kts | 225° |
| 2026-05-01 13:12 | 42.17050 | 7.15516 | 37281 ft | 432 kts | 224° |
| 2026-05-01 13:12 | 42.12502 | 7.10211 | 37287 ft | 432 kts | 224° |
| 2026-05-01 13:13 | 42.07966 | 7.04921 | 37281 ft | 431 kts | 224° |
| 2026-05-01 13:13 | 42.03427 | 6.99628 | 37281 ft | 432 kts | 224° |
| 2026-05-01 13:14 | 41.98929 | 6.94293 | 37283 ft | 431 kts | 226° |
| 2026-05-01 13:14 | 41.94546 | 6.88870 | 37277 ft | 430 kts | 226° |
| 2026-05-01 13:15 | 41.90153 | 6.83417 | 37264 ft | 430 kts | 225° |
| 2026-05-01 13:15 | 41.85734 | 6.77996 | 37272 ft | 430 kts | 225° |
| 2026-05-01 13:16 | 41.81303 | 6.72604 | 37276 ft | 430 kts | 225° |
| 2026-05-01 13:16 | 41.76863 | 6.67219 | 37274 ft | 430 kts | 225° |
| 2026-05-01 13:17 | 41.68001 | 6.56464 | 37283 ft | 429 kts | 225° |
| 2026-05-01 13:18 | 41.61397 | 6.48454 | 37288 ft | 429 kts | 225° |
| 2026-05-01 13:18 | 41.56965 | 6.43112 | 37283 ft | 428 kts | 225° |
| 2026-05-01 13:19 | 41.52540 | 6.37780 | 37288 ft | 428 kts | 225° |
| 2026-05-01 13:20 | 41.45894 | 6.29813 | 37286 ft | 428 kts | 225° |
| 2026-05-01 13:20 | 41.41475 | 6.24512 | 37279 ft | 427 kts | 225° |
| 2026-05-01 13:21 | 41.34876 | 6.16601 | 37273 ft | 426 kts | 225° |
| 2026-05-01 13:21 | 41.30464 | 6.11333 | 37274 ft | 426 kts | 225° |
| 2026-05-01 13:22 | 41.26045 | 6.06077 | 37276 ft | 425 kts | 224° |
| 2026-05-01 13:22 | 41.21632 | 6.00857 | 37282 ft | 424 kts | 224° |
| 2026-05-01 13:23 | 41.17230 | 5.95643 | 37286 ft | 423 kts | 224° |
| 2026-05-01 13:23 | 41.12853 | 5.90451 | 37290 ft | 422 kts | 224° |
| 2026-05-01 13:24 | 41.08481 | 5.85268 | 37288 ft | 421 kts | 224° |
| 2026-05-01 13:25 | 41.01938 | 5.77534 | 37270 ft | 420 kts | 224° |
| 2026-05-01 13:25 | 40.97564 | 5.72414 | 37267 ft | 419 kts | 224° |
| 2026-05-01 13:26 | 40.93534 | 5.66908 | 37267 ft | 414 kts | 237° |
| 2026-05-01 13:26 | 40.90226 | 5.60677 | 37269 ft | 414 kts | 236° |
| 2026-05-01 13:27 | 40.86897 | 5.54477 | 37267 ft | 414 kts | 236° |
| 2026-05-01 13:27 | 40.81889 | 5.45179 | 37244 ft | 415 kts | 236° |
| 2026-05-01 13:28 | 40.76875 | 5.35854 | 37233 ft | 416 kts | 236° |
| 2026-05-01 13:29 | 40.70156 | 5.23423 | 37245 ft | 416 kts | 235° |
| 2026-05-01 13:30 | 40.63434 | 5.11055 | 35901 ft | 413 kts | 236° |
| 2026-05-01 13:31 | 40.60136 | 5.04989 | 34902 ft | 407 kts | 236° |
| 2026-05-01 13:31 | 40.55236 | 4.96016 | 33357 ft | 398 kts | 235° |
| 2026-05-01 13:32 | 40.52010 | 4.90127 | 32285 ft | 394 kts | 235° |
| 2026-05-01 13:33 | 40.47240 | 4.81435 | 30795 ft | 387 kts | 235° |
| 2026-05-01 13:33 | 40.44105 | 4.75737 | 29754 ft | 383 kts | 235° |
| 2026-05-01 13:34 | 40.41001 | 4.70106 | 28685 ft | 378 kts | 235° |
| 2026-05-01 13:34 | 40.37946 | 4.64554 | 27668 ft | 373 kts | 235° |
| 2026-05-01 13:35 | 40.34928 | 4.59076 | 26698 ft | 368 kts | 236° |
| 2026-05-01 13:35 | 40.33429 | 4.56366 | 26233 ft | 366 kts | 235° |
| 2026-05-01 13:35 | 40.30449 | 4.50992 | 25269 ft | 363 kts | 235° |
| 2026-05-01 13:36 | 40.28967 | 4.48327 | 24820 ft | 361 kts | 236° |
| 2026-05-01 13:36 | 40.27493 | 4.45672 | 24385 ft | 359 kts | 235° |
| 2026-05-01 13:36 | 40.24578 | 4.40427 | 23444 ft | 357 kts | 236° |
| 2026-05-01 13:37 | 40.23119 | 4.37808 | 22952 ft | 355 kts | 235° |
| 2026-05-01 13:37 | 40.21671 | 4.35209 | 22507 ft | 353 kts | 235° |
| 2026-05-01 13:37 | 40.20231 | 4.32620 | 22058 ft | 350 kts | 235° |
| 2026-05-01 13:37 | 40.18798 | 4.30047 | 21627 ft | 348 kts | 236° |
| 2026-05-01 13:38 | 40.15959 | 4.24965 | 20791 ft | 344 kts | 235° |
| 2026-05-01 13:38 | 40.14550 | 4.22452 | 20381 ft | 342 kts | 234° |
| 2026-05-01 13:38 | 40.13148 | 4.19957 | 20202 ft | 341 kts | 234° |
| 2026-05-01 13:39 | 40.11744 | 4.17458 | 20206 ft | 341 kts | 234° |
| 2026-05-01 13:39 | 40.10346 | 4.14965 | 20212 ft | 341 kts | 234° |
| 2026-05-01 13:39 | 40.08945 | 4.12471 | 20213 ft | 341 kts | 234° |
| 2026-05-01 13:39 | 40.07543 | 4.09975 | 20215 ft | 341 kts | 234° |
| 2026-05-01 13:40 | 40.06141 | 4.07478 | 20215 ft | 341 kts | 234° |
| 2026-05-01 13:40 | 40.04740 | 4.04988 | 20113 ft | 338 kts | 234° |
| 2026-05-01 13:40 | 40.03353 | 4.02518 | 19704 ft | 337 kts | 234° |
| 2026-05-01 13:40 | 40.01967 | 4.00054 | 19305 ft | 336 kts | 234° |
| 2026-05-01 13:41 | 40.00589 | 3.97611 | 18931 ft | 334 kts | 234° |
| 2026-05-01 13:41 | 39.99216 | 3.95179 | 18581 ft | 332 kts | 234° |
| 2026-05-01 13:41 | 39.97855 | 3.92767 | 18183 ft | 330 kts | 234° |
| 2026-05-01 13:41 | 39.96497 | 3.90360 | 17770 ft | 328 kts | 234° |
| 2026-05-01 13:42 | 39.95146 | 3.87965 | 17395 ft | 326 kts | 234° |
| 2026-05-01 13:42 | 39.93810 | 3.85597 | 17036 ft | 324 kts | 235° |
| 2026-05-01 13:42 | 39.92477 | 3.83241 | 16674 ft | 322 kts | 235° |
| 2026-05-01 13:42 | 39.91151 | 3.80907 | 16322 ft | 320 kts | 234° |
| 2026-05-01 13:43 | 39.89829 | 3.78583 | 16011 ft | 317 kts | 234° |
| 2026-05-01 13:43 | 39.88522 | 3.76286 | 15684 ft | 314 kts | 234° |
| 2026-05-01 13:43 | 39.87230 | 3.74012 | 15361 ft | 312 kts | 234° |
| 2026-05-01 13:43 | 39.85940 | 3.71740 | 15024 ft | 311 kts | 234° |
| 2026-05-01 13:44 | 39.84655 | 3.69485 | 14692 ft | 310 kts | 234° |
| 2026-05-01 13:44 | 39.83376 | 3.67243 | 14371 ft | 308 kts | 234° |
| 2026-05-01 13:44 | 39.82104 | 3.65016 | 14087 ft | 305 kts | 234° |
| 2026-05-01 13:44 | 39.80841 | 3.62807 | 13724 ft | 304 kts | 234° |
| 2026-05-01 13:45 | 39.79578 | 3.60601 | 13335 ft | 303 kts | 233° |
| 2026-05-01 13:45 | 39.78327 | 3.58408 | 12966 ft | 302 kts | 234° |
| 2026-05-01 13:45 | 39.77096 | 3.56250 | 12633 ft | 300 kts | 233° |
| 2026-05-01 13:45 | 39.75856 | 3.54078 | 12288 ft | 298 kts | 233° |
| 2026-05-01 13:46 | 39.74622 | 3.51920 | 11900 ft | 297 kts | 233° |
| 2026-05-01 13:46 | 39.73386 | 3.49760 | 11529 ft | 297 kts | 233° |
| 2026-05-01 13:46 | 39.72156 | 3.47610 | 11178 ft | 296 kts | 233° |
| 2026-05-01 13:46 | 39.70933 | 3.45473 | 10835 ft | 294 kts | 233° |
| 2026-05-01 13:47 | 39.69750 | 3.43313 | 10504 ft | 292 kts | 239° |
| 2026-05-01 13:47 | 39.68832 | 3.40977 | 10206 ft | 289 kts | 243° |
| 2026-05-01 13:47 | 39.67941 | 3.38644 | 9840 ft | 287 kts | 243° |
| 2026-05-01 13:47 | 39.67049 | 3.36331 | 9457 ft | 286 kts | 243° |
| 2026-05-01 13:48 | 39.66155 | 3.34026 | 9066 ft | 285 kts | 242° |
| 2026-05-01 13:48 | 39.65267 | 3.31727 | 8677 ft | 284 kts | 242° |
| 2026-05-01 13:48 | 39.64383 | 3.29432 | 8296 ft | 283 kts | 242° |
| 2026-05-01 13:48 | 39.63503 | 3.27149 | 7893 ft | 283 kts | 242° |
| 2026-05-01 13:49 | 39.62919 | 3.25635 | 7637 ft | 282 kts | 242° |
| 2026-05-01 13:49 | 39.62042 | 3.23366 | 7226 ft | 282 kts | 241° |
| 2026-05-01 13:49 | 39.61163 | 3.21096 | 6856 ft | 281 kts | 240° |
| 2026-05-01 13:49 | 39.60288 | 3.18836 | 6448 ft | 280 kts | 240° |
| 2026-05-01 13:50 | 39.59414 | 3.16579 | 6073 ft | 279 kts | 240° |
| 2026-05-01 13:50 | 39.58547 | 3.14342 | 5657 ft | 278 kts | 241° |
| 2026-05-01 13:50 | 39.57679 | 3.12105 | 5271 ft | 277 kts | 240° |
| 2026-05-01 13:50 | 39.56813 | 3.09874 | 5014 ft | 275 kts | 241° |
| 2026-05-01 13:51 | 39.55973 | 3.07712 | 5007 ft | 278 kts | 240° |
| 2026-05-01 13:51 | 39.55113 | 3.05502 | 5011 ft | 278 kts | 240° |
| 2026-05-01 13:51 | 39.54242 | 3.03269 | 5009 ft | 277 kts | 241° |
| 2026-05-01 13:51 | 39.53372 | 3.01038 | 5014 ft | 277 kts | 242° |
| 2026-05-01 13:52 | 39.52502 | 2.98808 | 5009 ft | 277 kts | 242° |
| 2026-05-01 13:52 | 39.51630 | 2.96575 | 5008 ft | 277 kts | 241° |
| 2026-05-01 13:52 | 39.50758 | 2.94337 | 5011 ft | 279 kts | 241° |
| 2026-05-01 13:52 | 39.49881 | 2.92087 | 5009 ft | 279 kts | 242° |
| 2026-05-01 13:53 | 39.49021 | 2.89881 | 4969 ft | 267 kts | 241° |
| 2026-05-01 13:53 | 39.47415 | 2.85774 | 4710 ft | 245 kts | 241° |
| 2026-05-01 13:53 | 39.46652 | 2.83830 | 4497 ft | 240 kts | 242° |
| 2026-05-01 13:54 | 39.45896 | 2.81908 | 4142 ft | 240 kts | 242° |
| 2026-05-01 13:54 | 39.45141 | 2.79982 | 3837 ft | 239 kts | 242° |
| 2026-05-01 13:54 | 39.44393 | 2.78073 | 3563 ft | 236 kts | 243° |
| 2026-05-01 13:54 | 39.43650 | 2.76169 | 3238 ft | 236 kts | 243° |
| 2026-05-01 13:55 | 39.42925 | 2.74313 | 3012 ft | 229 kts | 243° |
| 2026-05-01 13:55 | 39.42202 | 2.72477 | 3010 ft | 231 kts | 242° |
| 2026-05-01 13:55 | 39.41475 | 2.70609 | 3013 ft | 233 kts | 242° |
| 2026-05-01 13:55 | 39.40751 | 2.68749 | 3005 ft | 232 kts | 242° |
| 2026-05-01 13:56 | 39.40025 | 2.66861 | 3015 ft | 235 kts | 242° |
| 2026-05-01 13:56 | 39.39306 | 2.64991 | 2949 ft | 229 kts | 242° |
| 2026-05-01 13:56 | 39.38607 | 2.63168 | 2696 ft | 226 kts | 242° |
| 2026-05-01 13:56 | 39.37921 | 2.61351 | 2413 ft | 224 kts | 245° |
| 2026-05-01 13:57 | 39.37656 | 2.59394 | 2137 ft | 224 kts | 278° |
| 2026-05-01 13:57 | 39.38204 | 2.57546 | 2003 ft | 223 kts | 307° |
| 2026-05-01 13:57 | 39.39363 | 2.56242 | 2007 ft | 224 kts | 336° |
| 2026-05-01 13:57 | 39.40851 | 2.55737 | 2008 ft | 222 kts | 354° |
| 2026-05-01 13:58 | 39.42378 | 2.55437 | 2008 ft | 222 kts | 353° |
| 2026-05-01 13:58 | 39.43903 | 2.55135 | 2008 ft | 222 kts | 353° |
| 2026-05-01 13:58 | 39.45433 | 2.54990 | 2002 ft | 219 kts | 10° |
| 2026-05-01 13:58 | 39.46856 | 2.55592 | 2005 ft | 214 kts | 34° |
| 2026-05-01 13:59 | 39.47959 | 2.56861 | 2008 ft | 211 kts | 57° |
| 2026-05-01 13:59 | 39.48712 | 2.58414 | 2005 ft | 198 kts | 61° |
| 2026-05-01 13:59 | 39.49421 | 2.59912 | 1942 ft | 193 kts | 61° |
| 2026-05-01 13:59 | 39.50121 | 2.61387 | 1736 ft | 191 kts | 61° |
| 2026-05-01 14:00 | 39.50815 | 2.62851 | 1484 ft | 191 kts | 60° |
| 2026-05-01 14:00 | 39.51501 | 2.64294 | 1262 ft | 183 kts | 61° |
| 2026-05-01 14:00 | 39.52149 | 2.65657 | 1014 ft | 172 kts | 63° |
| 2026-05-01 14:00 | 39.52756 | 2.66938 | 809 ft | 161 kts | 61° |
| 2026-05-01 14:01 | 39.53327 | 2.68139 | 625 ft | 150 kts | 63° |
| 2026-05-01 14:01 | 39.53850 | 2.69244 | 372 ft | 140 kts | 60° |
| 2026-05-01 14:01 | 39.54349 | 2.70289 | 218 ft | 135 kts | 62° |
| 2026-05-01 14:01 | 39.54825 | 2.71305 | 41 ft | 130 kts | 61° |
| 2026-05-01 14:02 | 39.55249 | 2.72201 | 28 ft | 98 kts | 58° |
| 2026-05-01 14:02 | 39.55525 | 2.72776 | 31 ft | 57 kts | 58° |
| 2026-05-01 14:02 | 39.55685 | 2.73129 | 33 ft | 34 kts | 66° |
| 2026-05-01 14:02 | 39.55707 | 2.73373 | 33 ft | 24 kts | 88° |
| 2026-05-01 14:03 | 39.55691 | 2.73517 | 34 ft | 10 kts | 130° |
| 2026-05-01 14:03 | 39.55633 | 2.73506 | 33 ft | 8 kts | 186° |
| 2026-05-01 14:03 | 39.55586 | 2.73527 | 34 ft | 7 kts | 149° |
| 2026-05-01 14:03 | 39.55549 | 2.73556 | 33 ft | 6 kts | 149° |
| 2026-05-01 14:04 | 39.55510 | 2.73586 | 34 ft | 11 kts | 148° |
| 2026-05-01 14:04 | 39.55406 | 2.73669 | 34 ft | 20 kts | 148° |
| 2026-05-01 14:04 | 39.55282 | 2.73768 | 32 ft | 22 kts | 148° |
| 2026-05-01 14:04 | 39.55180 | 2.73804 | 33 ft | 11 kts | 221° |
| 2026-05-01 14:05 | 39.55174 | 2.73734 | 33 ft | 8 kts | 302° |
| 2026-05-01 14:05 | 39.55169 | 2.73673 | 33 ft | 6 kts | 240° |
| 2026-05-01 14:05 | 39.55147 | 2.73625 | 33 ft | 6 kts | 239° |
| 2026-05-01 14:05 | 39.55126 | 2.73581 | 33 ft | 6 kts | 237° |
| 2026-05-01 14:06 | 39.55097 | 2.73577 | 33 ft | 4 kts | 171° |
| 2026-05-01 14:06 | 39.55076 | 2.73585 | 34 ft | 3 kts | 157° |
| 2026-05-01 14:06 | 39.55059 | 2.73593 | 34 ft | 2 kts | 162° |
| 2026-05-01 14:06 | 39.55054 | 2.73595 | 34 ft | 0 kts | 162° |